x

San Francisco - 18nm West Of San Francisco, Ca (46026) Wave Buoy

8:50am - Thu 3rd Sep 2015 All times are PDT. -7 hours from GMT.

  • Sig Wave height 6.6ft
  • Swell Direction
  • Peak Period 13s
  • Average Period 6s
  • Wind
    20mph, 25mph gusts
  • Sea Temp 60°f
  • Air Temp 60°f
  • Sea Pressure 1013.7mb
  • San Francisco - 18nm West Of San Francisco, Ca
  • San Francisco - 18nm West Of San Francisco, Ca

More Historic Weather Station data

Upgrade to MSW Pro to gain access to the past 30 days of data for over 8000 Wavebouys and Weather Stations around the globe.

Join Pro

Comparision Forecast

View Surf forecast
   
Thu 09/03 8:50am 6.5ft 13s 6s 20 25 mph 1013.7mb 60f 60f
7:50am 5.5ft 11s 6s 22 27 mph 1013.2mb 60f 60f
6:50am 5.5ft 11s 6s 18 22 mph 1013.1mb 60f 60f
5:50am 5ft 12s 6s 16 18 mph 1013mb 61f 60f
4:50am 5ft 12s 6s 16 18 mph 1012.8mb 61f 60f
3:50am 4.5ft 13s 6s 16 18 mph 1012.8mb 61f 60f
2:50am 5ft 11s 6s 16 18 mph 1012.8mb 61f 61f
1:50am 5ft 11s 6s 16 20 mph 1012.8mb 61f 61f
12:50am 5ft 12s 6s 16 20 mph 1013.1mb 61f 61f
Wed 09/02 11:50pm 5.5ft 12s 6s 18 20 mph 1013mb 61f 61f
10:50pm 5.5ft 12s 6s 20 25 mph 1012.7mb 62f 62f
9:50pm 5.5ft 11s 6s 20 25 mph 1012.8mb 62f 62f
8:50pm 6ft 11s 7s 18 20 mph 1012.8mb 62f 62f
7:50pm 5ft 10s 7s 16 20 mph 1012.8mb 62f 62f
6:50pm 5ft 11s 7s 13 18 mph 1013mb 62f 62f
5:50pm 5ft 11s 7s 13 18 mph 1013.3mb 62f 62f
4:50pm 5ft 12s 7s 13 16 mph 1013.6mb 62f 62f
3:50pm 5ft 11s 7s 13 16 mph 1014mb 62f 62f
2:50pm 5ft 12s 7s 13 18 mph 1014.5mb 62f 62f
1:50pm 5ft 11s 7s 13 16 mph 1014.7mb 62f 61f
12:50pm 5.5ft 11s 7s 11 13 mph 1014.6mb 62f 62f
11:50am 5.5ft 12s 7s 9 11 mph 1015mb 62f 60f
10:50am 5.5ft 11s 7s 13 16 mph 1015mb 62f 59f
9:50am 5.5ft 11s 7s 13 16 mph 1014.5mb 61f 60f
8:50am 5.5ft 11s 7s 13 18 mph 1014.3mb 61f 60f
7:50am 5ft 11s 7s 13 18 mph 1014mb 61f 61f
6:50am 4.5ft 11s 6s 11 18 mph 1013.5mb 61f 61f
5:50am 5ft 13s 7s 11 13 mph 1013.4mb 61f 61f
4:50am 5ft 13s 6s 11 13 mph 1013.3mb 62f 61f
3:50am 5.5ft 12s 6s 13 18 mph 1013.3mb 62f 61f
2:50am 6ft 14s 6s 13 16 mph 1013.4mb 62f 61f
1:50am 6.5ft 13s 6s 18 25 mph 1013.2mb 62f 61f
12:50am 6ft 11s 6s 20 25 mph 1012.9mb 62f 62f
Tue 09/01 11:50pm 6ft 11s 6s 20 25 mph 1012.8mb 62f 62f
10:50pm 6ft 11s 6s 16 20 mph 1013.3mb 62f 62f
9:50pm 6.5ft 11s 7s 16 20 mph 1013.4mb 62f 62f
8:50pm 6ft 11s 7s 18 22 mph 1013.1mb 62f 62f
7:50pm 6ft 11s 7s 13 18 mph 1013mb 62f 62f
6:50pm 6ft 11s 7s 11 16 mph 1012.6mb 63f 63f
5:50pm 6ft 11s 7s 11 13 mph 1012.4mb 63f 62f
4:50pm 6ft 11s 7s 18 20 mph 1012mb 63f 62f
3:50pm 6ft 12s 7s 11 16 mph 1012.1mb 63f 61f
2:50pm 6ft 11s 7s 9 13 mph 1012.1mb 63f 60f
1:50pm 5.5ft 12s 7s 7 9 mph 1012.2mb 63f 59f
12:50pm 6ft 8s 7s 9
mph
1012.5mb 62f 60f
11:50am 6ft 12s 7s 9
mph
1012.7mb 62f 60f
10:50am 6ft 12s 7s 9 11 mph 1012.8mb 62f 60f
9:50am 6.5ft 8s 7s 11 13 mph 1012.3mb 62f 59f
8:50am 7ft 12s 7s 9 11 mph 1012.1mb 62f 60f
7:50am 7ft 15s 7s 9 11 mph 1011.8mb 62f 60f
6:50am 7ft 11s 7s 11 13 mph 1011.3mb 62f 60f
5:50am 7ft 11s 7s 11 16 mph 1011.4mb 62f 60f
4:50am 7ft 11s 7s 9 13 mph 1011.2mb 62f 60f
3:50am 7ft 11s 7s 9 13 mph 1011.3mb 62f 61f
2:50am 7ft 10s 7s 9 13 mph 1011.2mb 62f 61f
1:50am 6.5ft 11s 7s 9 11 mph 1011.6mb 62f 61f
12:50am 7.5ft 11s 7s 9 11 mph 1011.7mb 62f 61f
Mon 08/31 11:50pm 7ft 11s 7s 11 13 mph 1011.6mb 62f 62f
10:50pm 7ft 12s 7s 11 16 mph 1011.7mb 62f 62f
9:50pm 7ft 11s 7s 13 18 mph 1012mb 62f 62f
8:50pm 7.5ft 11s 7s 18 20 mph 1011.6mb 62f 62f
7:50pm 7ft 11s 7s 16 20 mph 1011.9mb 62f 62f
6:50pm 7ft 15s 7s 18 20 mph 1012.1mb 62f 62f
5:50pm 7ft 13s 7s 20 25 mph 1012.4mb 63f 62f
4:50pm 6ft 11s 6s 18 22 mph 1012.8mb 63f 62f
3:50pm 7ft 12s 7s 18 20 mph 1012.9mb 63f 62f
2:50pm 6ft 12s 7s 16 18 mph 1013.6mb 63f 62f
1:50pm 6.5ft 16s 7s 16 18 mph 1013.9mb 63f 62f
12:50pm 7ft 15s 7s 16 20 mph 1014.2mb 63f 61f
11:50am 7ft 12s 8s 13 18 mph 1014.4mb 62f 61f
10:50am 7ft 12s 7s 11 13 mph 1014.6mb 62f 61f
9:50am 7ft 13s 7s 11 16 mph 1014.2mb 62f 61f
8:50am 6.5ft 13s 7s 11 16 mph 1014.2mb 62f 61f
7:50am 7ft 16s 7s 11 16 mph 1013.9mb 62f 61f
6:50am 5.5ft 16s 7s 16 20 mph 1013.4mb 62f 61f
5:50am 5.5ft 16s 7s 16 18 mph 1013.4mb 62f 61f
4:50am 5ft 16s 7s 13 18 mph 1013.4mb 62f 61f
3:50am 5.5ft 16s 6s 13 18 mph 1013.5mb 62f 61f
2:50am 6ft 16s 6s 16 20 mph 1013.3mb 62f 62f
1:50am 5.5ft 16s 5s 20 22 mph 1013.5mb 62f 62f
12:50am 6.5ft 16s 6s 20 25 mph 1013.8mb 63f 62f
Sun 08/30 11:50pm 5.5ft 16s 5s 25 29 mph 1013.5mb 63f 63f
10:50pm 6ft 16s 6s 27 31 mph 1013.9mb 64f 64f
9:50pm 5.5ft 16s 5s 25 29 mph 1014.5mb 64f 64f
8:50pm 6ft 17s 6s 22 27 mph 1014.6mb 64f 64f
7:50pm 5.5ft 17s 6s 22 27 mph 1014.4mb 64f 64f
6:50pm 6ft 17s 6s 18 22 mph 1015mb 64f 65f
5:50pm 5ft 17s 6s 18 22 mph 1015.6mb 64f 65f